Star Junction, Pennsylvania
Current Conditions -  °F | °C
As of 11:27 AM on Thursday 30 Oct 2014 (Local Time) from KAGC Reporting Station
Broken Clouds Broken Clouds  
Wind Chill: 48°   Ceiling: 2000
Heat Index: 48°   Visibility: 10mi
Dew Point: 35°   Wind: 3mph
Humidity: 61%   Direction: NA
Pressure: 30.09"   Gusts: NA
Location:  40.06°N, 79.76°W
Report Text: KAGC 301527Z VRB03KT 10SM BKN020 09/02 A3009 RMK AO2 T00890017
Loading
Personal Weather Stations






























Interactive Weather Map
Tropical Storm Tracking
New forecast layout! Learn more

10-Day Weather Forecast

Advertisements
Track Severe Weather on mobile